sensor_id;sensor_type;location;lat;lon;timestamp;temperature;humidity
74384;DHT22;62824;52.994;-3.936;2022-11-15T00:00:24;9.30;99.90
74384;DHT22;62824;52.994;-3.936;2022-11-15T00:02:52;9.30;99.90
74384;DHT22;62824;52.994;-3.936;2022-11-15T00:05:18;9.30;99.90
74384;DHT22;62824;52.994;-3.936;2022-11-15T00:07:44;9.40;99.90
74384;DHT22;62824;52.994;-3.936;2022-11-15T00:10:09;9.40;99.90
74384;DHT22;62824;52.994;-3.936;2022-11-15T00:12:35;9.40;99.90
74384;DHT22;62824;52.994;-3.936;2022-11-15T00:15:01;9.40;99.90
74384;DHT22;62824;52.994;-3.936;2022-11-15T00:17:27;9.40;99.90
74384;DHT22;62824;52.994;-3.936;2022-11-15T00:19:53;9.50;99.90
74384;DHT22;62824;52.994;-3.936;2022-11-15T00:22:18;9.50;99.90
74384;DHT22;62824;52.994;-3.936;2022-11-15T00:24:44;9.50;99.90
74384;DHT22;62824;52.994;-3.936;2022-11-15T00:27:10;9.50;99.90
74384;DHT22;62824;52.994;-3.936;2022-11-15T00:29:35;9.50;99.90
74384;DHT22;62824;52.994;-3.936;2022-11-15T00:32:04;9.50;99.90
74384;DHT22;62824;52.994;-3.936;2022-11-15T00:34:30;9.50;99.90
74384;DHT22;62824;52.994;-3.936;2022-11-15T00:36:56;9.50;99.90
74384;DHT22;62824;52.994;-3.936;2022-11-15T00:39:22;9.50;99.90
74384;DHT22;62824;52.994;-3.936;2022-11-15T00:41:47;9.60;99.90
74384;DHT22;62824;52.994;-3.936;2022-11-15T00:44:13;9.60;99.90
74384;DHT22;62824;52.994;-3.936;2022-11-15T00:46:39;9.60;99.90
74384;DHT22;62824;52.994;-3.936;2022-11-15T00:49:04;9.60;99.90
74384;DHT22;62824;52.994;-3.936;2022-11-15T00:51:30;9.60;99.90
74384;DHT22;62824;52.994;-3.936;2022-11-15T00:53:56;9.60;99.90
74384;DHT22;62824;52.994;-3.936;2022-11-15T00:56:22;9.60;99.90
74384;DHT22;62824;52.994;-3.936;2022-11-15T00:58:51;9.70;99.90
74384;DHT22;62824;52.994;-3.936;2022-11-15T01:01:17;9.70;99.90
74384;DHT22;62824;52.994;-3.936;2022-11-15T01:03:43;9.80;99.90
74384;DHT22;62824;52.994;-3.936;2022-11-15T01:06:09;9.80;99.90
74384;DHT22;62824;52.994;-3.936;2022-11-15T01:08:35;9.80;99.90
74384;DHT22;62824;52.994;-3.936;2022-11-15T01:11:07;9.80;99.90
74384;DHT22;62824;52.994;-3.936;2022-11-15T01:13:34;9.80;99.90
74384;DHT22;62824;52.994;-3.936;2022-11-15T01:16:10;9.90;99.90
74384;DHT22;62824;52.994;-3.936;2022-11-15T01:18:36;9.90;99.90
74384;DHT22;62824;52.994;-3.936;2022-11-15T01:21:10;9.90;99.90
74384;DHT22;62824;52.994;-3.936;2022-11-15T01:23:36;9.90;99.90
74384;DHT22;62824;52.994;-3.936;2022-11-15T01:26:04;9.90;99.90
74384;DHT22;62824;52.994;-3.936;2022-11-15T01:28:35;9.90;99.90
74384;DHT22;62824;52.994;-3.936;2022-11-15T01:31:03;9.90;99.90
74384;DHT22;62824;52.994;-3.936;2022-11-15T01:33:29;9.90;99.90
74384;DHT22;62824;52.994;-3.936;2022-11-15T01:35:55;9.90;99.90
74384;DHT22;62824;52.994;-3.936;2022-11-15T01:38:22;9.90;99.90
74384;DHT22;62824;52.994;-3.936;2022-11-15T01:40:48;9.80;99.90
74384;DHT22;62824;52.994;-3.936;2022-11-15T01:43:24;9.80;99.90
74384;DHT22;62824;52.994;-3.936;2022-11-15T01:45:56;9.90;99.90
74384;DHT22;62824;52.994;-3.936;2022-11-15T01:48:28;9.80;99.90
74384;DHT22;62824;52.994;-3.936;2022-11-15T01:50:56;9.80;99.90
74384;DHT22;62824;52.994;-3.936;2022-11-15T01:53:23;9.90;99.90
74384;DHT22;62824;52.994;-3.936;2022-11-15T01:55:49;9.90;99.90
74384;DHT22;62824;52.994;-3.936;2022-11-15T01:58:15;9.90;99.90
74384;DHT22;62824;52.994;-3.936;2022-11-15T02:00:42;9.90;99.90
74384;DHT22;62824;52.994;-3.936;2022-11-15T02:03:07;10.00;99.90
74384;DHT22;62824;52.994;-3.936;2022-11-15T02:05:34;10.00;99.90
74384;DHT22;62824;52.994;-3.936;2022-11-15T02:08:01;10.10;99.90
74384;DHT22;62824;52.994;-3.936;2022-11-15T02:10:27;10.10;99.90
74384;DHT22;62824;52.994;-3.936;2022-11-15T02:12:54;10.10;99.90
74384;DHT22;62824;52.994;-3.936;2022-11-15T02:15:26;10.10;99.90
74384;DHT22;62824;52.994;-3.936;2022-11-15T02:18:14;10.10;99.90
74384;DHT22;62824;52.994;-3.936;2022-11-15T02:23:38;10.20;99.90
74384;DHT22;62824;52.994;-3.936;2022-11-15T02:29:12;10.20;99.90
74384;DHT22;62824;52.994;-3.936;2022-11-15T02:32:02;10.20;99.90
74384;DHT22;62824;52.994;-3.936;2022-11-15T02:34:39;10.20;99.90
74384;DHT22;62824;52.994;-3.936;2022-11-15T02:37:44;10.20;99.90
74384;DHT22;62824;52.994;-3.936;2022-11-15T02:43:17;10.20;99.90
74384;DHT22;62824;52.994;-3.936;2022-11-15T02:46:13;10.20;99.90
74384;DHT22;62824;52.994;-3.936;2022-11-15T02:48:41;10.30;99.90
74384;DHT22;62824;52.994;-3.936;2022-11-15T02:51:09;10.30;99.90
74384;DHT22;62824;52.994;-3.936;2022-11-15T02:53:35;10.30;99.90
74384;DHT22;62824;52.994;-3.936;2022-11-15T02:56:01;10.20;99.90
74384;DHT22;62824;52.994;-3.936;2022-11-15T03:06:52;10.20;99.90
74384;DHT22;62824;52.994;-3.936;2022-11-15T03:12:56;10.20;99.90
74384;DHT22;62824;52.994;-3.936;2022-11-15T03:15:31;10.30;99.90
74384;DHT22;62824;52.994;-3.936;2022-11-15T03:18:18;10.40;99.90
74384;DHT22;62824;52.994;-3.936;2022-11-15T03:20:46;10.40;99.90
74384;DHT22;62824;52.994;-3.936;2022-11-15T03:23:13;10.40;99.90
74384;DHT22;62824;52.994;-3.936;2022-11-15T03:25:43;10.50;99.90
74384;DHT22;62824;52.994;-3.936;2022-11-15T03:28:13;10.50;99.90
74384;DHT22;62824;52.994;-3.936;2022-11-15T03:30:42;10.50;99.90
74384;DHT22;62824;52.994;-3.936;2022-11-15T03:33:10;10.50;99.90
74384;DHT22;62824;52.994;-3.936;2022-11-15T03:35:43;10.50;99.90
74384;DHT22;62824;52.994;-3.936;2022-11-15T03:38:17;10.50;99.90
74384;DHT22;62824;52.994;-3.936;2022-11-15T03:40:55;10.50;99.90
74384;DHT22;62824;52.994;-3.936;2022-11-15T03:43:44;10.50;99.90
74384;DHT22;62824;52.994;-3.936;2022-11-15T03:46:40;10.50;99.90
74384;DHT22;62824;52.994;-3.936;2022-11-15T03:49:33;10.60;99.90
74384;DHT22;62824;52.994;-3.936;2022-11-15T03:52:01;10.60;99.90
74384;DHT22;62824;52.994;-3.936;2022-11-15T03:54:27;10.60;99.90
74384;DHT22;62824;52.994;-3.936;2022-11-15T03:56:53;10.70;99.90
74384;DHT22;62824;52.994;-3.936;2022-11-15T03:59:19;10.70;99.90
74384;DHT22;62824;52.994;-3.936;2022-11-15T04:01:45;10.70;99.90
74384;DHT22;62824;52.994;-3.936;2022-11-15T04:04:11;10.70;99.90
74384;DHT22;62824;52.994;-3.936;2022-11-15T04:06:37;10.70;99.90
74384;DHT22;62824;52.994;-3.936;2022-11-15T04:09:03;10.80;99.90
74384;DHT22;62824;52.994;-3.936;2022-11-15T04:11:29;10.90;99.90
74384;DHT22;62824;52.994;-3.936;2022-11-15T04:13:55;10.80;99.90
74384;DHT22;62824;52.994;-3.936;2022-11-15T04:16:20;10.80;99.90
74384;DHT22;62824;52.994;-3.936;2022-11-15T04:18:46;10.80;99.90
74384;DHT22;62824;52.994;-3.936;2022-11-15T04:21:32;10.80;99.90
74384;DHT22;62824;52.994;-3.936;2022-11-15T04:24:16;10.70;99.90
74384;DHT22;62824;52.994;-3.936;2022-11-15T04:26:42;10.70;99.90
74384;DHT22;62824;52.994;-3.936;2022-11-15T04:29:07;10.70;99.90
74384;DHT22;62824;52.994;-3.936;2022-11-15T04:32:09;10.70;99.90
74384;DHT22;62824;52.994;-3.936;2022-11-15T04:34:34;10.70;99.90
74384;DHT22;62824;52.994;-3.936;2022-11-15T04:37:00;10.70;99.90
74384;DHT22;62824;52.994;-3.936;2022-11-15T04:39:42;10.70;99.90
74384;DHT22;62824;52.994;-3.936;2022-11-15T04:42:08;10.70;99.90
74384;DHT22;62824;52.994;-3.936;2022-11-15T04:44:35;10.70;99.90
74384;DHT22;62824;52.994;-3.936;2022-11-15T04:47:01;10.70;99.90
74384;DHT22;62824;52.994;-3.936;2022-11-15T04:49:27;10.80;99.90
74384;DHT22;62824;52.994;-3.936;2022-11-15T04:51:53;10.70;99.90
74384;DHT22;62824;52.994;-3.936;2022-11-15T04:54:19;10.70;99.90
74384;DHT22;62824;52.994;-3.936;2022-11-15T04:56:44;10.70;99.90
74384;DHT22;62824;52.994;-3.936;2022-11-15T04:59:10;10.70;99.90
74384;DHT22;62824;52.994;-3.936;2022-11-15T05:01:36;10.70;99.90
74384;DHT22;62824;52.994;-3.936;2022-11-15T05:04:02;10.70;99.90
74384;DHT22;62824;52.994;-3.936;2022-11-15T05:06:47;10.70;99.90
74384;DHT22;62824;52.994;-3.936;2022-11-15T05:09:13;10.70;99.90
74384;DHT22;62824;52.994;-3.936;2022-11-15T05:11:40;10.70;99.90
74384;DHT22;62824;52.994;-3.936;2022-11-15T05:14:06;10.70;99.90
74384;DHT22;62824;52.994;-3.936;2022-11-15T05:16:31;10.70;99.90
74384;DHT22;62824;52.994;-3.936;2022-11-15T05:18:57;10.80;99.90
74384;DHT22;62824;52.994;-3.936;2022-11-15T05:21:23;10.80;99.90
74384;DHT22;62824;52.994;-3.936;2022-11-15T05:23:49;10.80;99.90
74384;DHT22;62824;52.994;-3.936;2022-11-15T05:26:16;10.80;99.90
74384;DHT22;62824;52.994;-3.936;2022-11-15T05:28:42;10.80;99.90
74384;DHT22;62824;52.994;-3.936;2022-11-15T05:31:10;10.80;99.90
74384;DHT22;62824;52.994;-3.936;2022-11-15T05:33:38;10.80;99.90
74384;DHT22;62824;52.994;-3.936;2022-11-15T05:36:06;10.80;99.90
74384;DHT22;62824;52.994;-3.936;2022-11-15T05:38:33;10.80;99.90
74384;DHT22;62824;52.994;-3.936;2022-11-15T05:41:00;10.80;99.90
74384;DHT22;62824;52.994;-3.936;2022-11-15T05:43:27;10.80;99.90
74384;DHT22;62824;52.994;-3.936;2022-11-15T05:45:55;10.80;99.90
74384;DHT22;62824;52.994;-3.936;2022-11-15T05:48:21;10.80;99.90
74384;DHT22;62824;52.994;-3.936;2022-11-15T05:50:48;10.80;99.90
74384;DHT22;62824;52.994;-3.936;2022-11-15T05:53:16;10.80;99.90
74384;DHT22;62824;52.994;-3.936;2022-11-15T05:55:43;10.80;99.90
74384;DHT22;62824;52.994;-3.936;2022-11-15T05:58:09;10.80;99.90
74384;DHT22;62824;52.994;-3.936;2022-11-15T06:00:35;10.80;99.90
74384;DHT22;62824;52.994;-3.936;2022-11-15T06:03:01;10.80;99.90
74384;DHT22;62824;52.994;-3.936;2022-11-15T06:05:27;10.80;99.90
74384;DHT22;62824;52.994;-3.936;2022-11-15T06:07:56;10.80;99.90
74384;DHT22;62824;52.994;-3.936;2022-11-15T06:10:22;10.80;99.90
74384;DHT22;62824;52.994;-3.936;2022-11-15T06:12:56;10.80;99.90
74384;DHT22;62824;52.994;-3.936;2022-11-15T06:15:22;10.70;99.90
74384;DHT22;62824;52.994;-3.936;2022-11-15T06:17:48;10.70;99.90
74384;DHT22;62824;52.994;-3.936;2022-11-15T06:20:14;10.70;99.90
74384;DHT22;62824;52.994;-3.936;2022-11-15T06:22:40;10.70;99.90
74384;DHT22;62824;52.994;-3.936;2022-11-15T06:25:06;10.70;99.90
74384;DHT22;62824;52.994;-3.936;2022-11-15T06:27:31;10.70;99.90
74384;DHT22;62824;52.994;-3.936;2022-11-15T06:29:57;10.70;99.90
74384;DHT22;62824;52.994;-3.936;2022-11-15T06:32:23;10.70;99.90
74384;DHT22;62824;52.994;-3.936;2022-11-15T06:34:49;10.70;99.90
74384;DHT22;62824;52.994;-3.936;2022-11-15T06:37:15;10.70;99.90
74384;DHT22;62824;52.994;-3.936;2022-11-15T06:39:41;10.70;99.90
74384;DHT22;62824;52.994;-3.936;2022-11-15T06:42:08;10.70;99.90
74384;DHT22;62824;52.994;-3.936;2022-11-15T06:44:34;10.70;99.90
74384;DHT22;62824;52.994;-3.936;2022-11-15T06:47:00;10.70;99.90
74384;DHT22;62824;52.994;-3.936;2022-11-15T06:49:26;10.80;99.90
74384;DHT22;62824;52.994;-3.936;2022-11-15T06:51:52;10.80;99.90
74384;DHT22;62824;52.994;-3.936;2022-11-15T06:54:17;10.80;99.90
74384;DHT22;62824;52.994;-3.936;2022-11-15T06:56:43;10.80;99.90
74384;DHT22;62824;52.994;-3.936;2022-11-15T06:59:09;10.80;99.90
74384;DHT22;62824;52.994;-3.936;2022-11-15T07:01:35;10.80;99.90
74384;DHT22;62824;52.994;-3.936;2022-11-15T07:04:01;10.80;99.90
74384;DHT22;62824;52.994;-3.936;2022-11-15T07:06:26;10.80;99.90
74384;DHT22;62824;52.994;-3.936;2022-11-15T07:08:52;10.80;99.90
74384;DHT22;62824;52.994;-3.936;2022-11-15T07:11:18;10.80;99.90
74384;DHT22;62824;52.994;-3.936;2022-11-15T07:13:44;10.80;99.90
74384;DHT22;62824;52.994;-3.936;2022-11-15T07:16:10;10.70;99.90
74384;DHT22;62824;52.994;-3.936;2022-11-15T07:18:37;10.70;99.90
74384;DHT22;62824;52.994;-3.936;2022-11-15T07:21:05;10.70;99.90
74384;DHT22;62824;52.994;-3.936;2022-11-15T07:23:32;10.70;99.90
74384;DHT22;62824;52.994;-3.936;2022-11-15T07:25:58;10.70;99.90
74384;DHT22;62824;52.994;-3.936;2022-11-15T07:28:27;10.70;99.90
74384;DHT22;62824;52.994;-3.936;2022-11-15T07:30:53;10.70;99.90
74384;DHT22;62824;52.994;-3.936;2022-11-15T07:33:19;10.70;99.90
74384;DHT22;62824;52.994;-3.936;2022-11-15T07:35:45;10.70;99.90
74384;DHT22;62824;52.994;-3.936;2022-11-15T07:38:14;10.70;99.90
74384;DHT22;62824;52.994;-3.936;2022-11-15T07:40:46;10.70;99.90
74384;DHT22;62824;52.994;-3.936;2022-11-15T07:43:12;10.70;99.90
74384;DHT22;62824;52.994;-3.936;2022-11-15T07:45:43;10.70;99.90
74384;DHT22;62824;52.994;-3.936;2022-11-15T07:48:10;10.70;99.90
74384;DHT22;62824;52.994;-3.936;2022-11-15T07:50:36;10.70;99.90
74384;DHT22;62824;52.994;-3.936;2022-11-15T07:53:01;10.70;99.90
74384;DHT22;62824;52.994;-3.936;2022-11-15T07:55:28;10.70;99.90
74384;DHT22;62824;52.994;-3.936;2022-11-15T08:00:31;10.60;99.90
74384;DHT22;62824;52.994;-3.936;2022-11-15T08:03:11;10.60;99.90
74384;DHT22;62824;52.994;-3.936;2022-11-15T08:05:39;10.60;99.90
74384;DHT22;62824;52.994;-3.936;2022-11-15T08:08:05;10.60;99.90
74384;DHT22;62824;52.994;-3.936;2022-11-15T08:10:31;10.50;99.90
74384;DHT22;62824;52.994;-3.936;2022-11-15T08:13:06;10.50;99.90
74384;DHT22;62824;52.994;-3.936;2022-11-15T08:15:33;10.50;99.90
74384;DHT22;62824;52.994;-3.936;2022-11-15T08:18:01;10.50;99.90
74384;DHT22;62824;52.994;-3.936;2022-11-15T08:20:28;10.50;99.90
74384;DHT22;62824;52.994;-3.936;2022-11-15T08:22:58;10.50;99.90
74384;DHT22;62824;52.994;-3.936;2022-11-15T08:25:25;10.50;99.90
74384;DHT22;62824;52.994;-3.936;2022-11-15T08:27:56;10.40;99.90
74384;DHT22;62824;52.994;-3.936;2022-11-15T08:30:22;10.40;99.90
74384;DHT22;62824;52.994;-3.936;2022-11-15T08:32:49;10.40;99.90
74384;DHT22;62824;52.994;-3.936;2022-11-15T08:35:16;10.30;99.90
74384;DHT22;62824;52.994;-3.936;2022-11-15T08:37:42;10.30;99.90
74384;DHT22;62824;52.994;-3.936;2022-11-15T08:40:08;10.30;99.90
74384;DHT22;62824;52.994;-3.936;2022-11-15T08:42:35;10.30;99.90
74384;DHT22;62824;52.994;-3.936;2022-11-15T08:45:01;10.30;99.90
74384;DHT22;62824;52.994;-3.936;2022-11-15T08:47:27;10.30;99.90
74384;DHT22;62824;52.994;-3.936;2022-11-15T08:49:53;10.30;99.90
74384;DHT22;62824;52.994;-3.936;2022-11-15T08:52:19;10.30;99.90
74384;DHT22;62824;52.994;-3.936;2022-11-15T08:54:44;10.20;99.90
74384;DHT22;62824;52.994;-3.936;2022-11-15T08:57:10;10.20;99.90
74384;DHT22;62824;52.994;-3.936;2022-11-15T08:59:37;10.20;99.90
74384;DHT22;62824;52.994;-3.936;2022-11-15T09:02:03;10.20;99.90
74384;DHT22;62824;52.994;-3.936;2022-11-15T09:04:29;10.20;99.90
74384;DHT22;62824;52.994;-3.936;2022-11-15T09:06:55;10.10;99.90
74384;DHT22;62824;52.994;-3.936;2022-11-15T09:09:21;10.20;99.90
74384;DHT22;62824;52.994;-3.936;2022-11-15T09:11:47;10.20;99.90
74384;DHT22;62824;52.994;-3.936;2022-11-15T09:14:14;10.00;99.90
74384;DHT22;62824;52.994;-3.936;2022-11-15T09:16:40;10.00;99.90
74384;DHT22;62824;52.994;-3.936;2022-11-15T09:19:06;10.10;99.90
74384;DHT22;62824;52.994;-3.936;2022-11-15T09:21:32;10.10;99.90
74384;DHT22;62824;52.994;-3.936;2022-11-15T09:23:57;10.20;99.90
74384;DHT22;62824;52.994;-3.936;2022-11-15T09:26:23;10.10;99.90
74384;DHT22;62824;52.994;-3.936;2022-11-15T09:28:50;10.00;99.90
74384;DHT22;62824;52.994;-3.936;2022-11-15T09:31:16;10.10;99.90
74384;DHT22;62824;52.994;-3.936;2022-11-15T09:33:45;10.00;99.90
74384;DHT22;62824;52.994;-3.936;2022-11-15T09:36:11;10.00;99.90
74384;DHT22;62824;52.994;-3.936;2022-11-15T09:38:38;10.00;99.90
74384;DHT22;62824;52.994;-3.936;2022-11-15T09:41:25;10.00;99.90
74384;DHT22;62824;52.994;-3.936;2022-11-15T09:49:33;10.00;99.90
74384;DHT22;62824;52.994;-3.936;2022-11-15T09:51:59;10.10;99.90
74384;DHT22;62824;52.994;-3.936;2022-11-15T09:54:32;10.10;99.90
74384;DHT22;62824;52.994;-3.936;2022-11-15T09:57:20;10.10;99.90
74384;DHT22;62824;52.994;-3.936;2022-11-15T10:00:09;10.10;99.90
74384;DHT22;62824;52.994;-3.936;2022-11-15T10:05:11;10.10;99.90
74384;DHT22;62824;52.994;-3.936;2022-11-15T10:07:50;10.10;99.90
74384;DHT22;62824;52.994;-3.936;2022-11-15T10:12:51;10.00;99.90
74384;DHT22;62824;52.994;-3.936;2022-11-15T10:15:18;10.00;99.90
74384;DHT22;62824;52.994;-3.936;2022-11-15T10:18:14;10.00;99.90
74384;DHT22;62824;52.994;-3.936;2022-11-15T10:20:48;10.10;99.90
74384;DHT22;62824;52.994;-3.936;2022-11-15T10:23:18;10.10;99.90
74384;DHT22;62824;52.994;-3.936;2022-11-15T10:25:45;10.00;99.90
74384;DHT22;62824;52.994;-3.936;2022-11-15T10:28:20;10.10;99.90
74384;DHT22;62824;52.994;-3.936;2022-11-15T10:30:52;10.20;99.90
74384;DHT22;62824;52.994;-3.936;2022-11-15T10:33:38;10.20;99.90
74384;DHT22;62824;52.994;-3.936;2022-11-15T10:36:22;10.20;99.90
74384;DHT22;62824;52.994;-3.936;2022-11-15T10:46:28;10.20;99.90
74384;DHT22;62824;52.994;-3.936;2022-11-15T10:49:20;10.20;99.90
74384;DHT22;62824;52.994;-3.936;2022-11-15T10:54:39;10.10;99.90
74384;DHT22;62824;52.994;-3.936;2022-11-15T10:57:16;10.10;99.90
74384;DHT22;62824;52.994;-3.936;2022-11-15T10:59:49;10.10;99.90
74384;DHT22;62824;52.994;-3.936;2022-11-15T11:02:45;10.20;99.90
74384;DHT22;62824;52.994;-3.936;2022-11-15T11:05:34;10.30;99.90
74384;DHT22;62824;52.994;-3.936;2022-11-15T11:08:23;10.40;99.90
74384;DHT22;62824;52.994;-3.936;2022-11-15T11:10:57;11.30;99.90
74384;DHT22;62824;52.994;-3.936;2022-11-15T11:13:32;12.40;99.90
74384;DHT22;62824;52.994;-3.936;2022-11-15T11:24:34;12.20;99.90
74384;DHT22;62824;52.994;-3.936;2022-11-15T11:35:17;11.40;99.90
74384;DHT22;62824;52.994;-3.936;2022-11-15T11:40:39;11.70;99.90
74384;DHT22;62824;52.994;-3.936;2022-11-15T11:48:46;12.20;99.00
74384;DHT22;62824;52.994;-3.936;2022-11-15T11:51:36;12.40;98.90
74384;DHT22;62824;52.994;-3.936;2022-11-15T11:54:14;12.70;96.60
74384;DHT22;62824;52.994;-3.936;2022-11-15T11:56:44;12.70;94.10
74384;DHT22;62824;52.994;-3.936;2022-11-15T11:59:27;12.70;90.60
74384;DHT22;62824;52.994;-3.936;2022-11-15T12:01:54;12.50;92.40
74384;DHT22;62824;52.994;-3.936;2022-11-15T12:04:35;12.50;95.10
74384;DHT22;62824;52.994;-3.936;2022-11-15T12:07:30;12.50;93.80
74384;DHT22;62824;52.994;-3.936;2022-11-15T12:15:43;12.50;93.40
74384;DHT22;62824;52.994;-3.936;2022-11-15T12:18:15;12.40;93.80
74384;DHT22;62824;52.994;-3.936;2022-11-15T12:20:54;12.30;93.60
74384;DHT22;62824;52.994;-3.936;2022-11-15T12:23:30;11.90;92.20
74384;DHT22;62824;52.994;-3.936;2022-11-15T12:26:15;11.90;94.20
74384;DHT22;62824;52.994;-3.936;2022-11-15T12:28:52;12.00;94.70
74384;DHT22;62824;52.994;-3.936;2022-11-15T12:34:02;11.90;96.90
74384;DHT22;62824;52.994;-3.936;2022-11-15T12:36:42;11.80;97.30
74384;DHT22;62824;52.994;-3.936;2022-11-15T12:39:10;11.80;94.20
74384;DHT22;62824;52.994;-3.936;2022-11-15T12:41:38;11.90;94.40
74384;DHT22;62824;52.994;-3.936;2022-11-15T12:44:04;11.80;95.80
74384;DHT22;62824;52.994;-3.936;2022-11-15T12:49:42;11.80;93.00
74384;DHT22;62824;52.994;-3.936;2022-11-15T13:02:40;11.70;92.30
74384;DHT22;62824;52.994;-3.936;2022-11-15T13:22:43;11.90;89.40
74384;DHT22;62824;52.994;-3.936;2022-11-15T13:30:40;11.80;89.90
74384;DHT22;62824;52.994;-3.936;2022-11-15T13:33:15;11.80;91.30
74384;DHT22;62824;52.994;-3.936;2022-11-15T13:35:42;11.70;81.50
74384;DHT22;62824;52.994;-3.936;2022-11-15T13:38:19;11.70;84.20
74384;DHT22;62824;52.994;-3.936;2022-11-15T13:40:50;11.60;86.40
74384;DHT22;62824;52.994;-3.936;2022-11-15T13:48:34;11.50;91.30
74384;DHT22;62824;52.994;-3.936;2022-11-15T13:51:05;11.60;86.50
74384;DHT22;62824;52.994;-3.936;2022-11-15T13:53:33;11.60;86.20
74384;DHT22;62824;52.994;-3.936;2022-11-15T13:56:02;11.50;87.00
74384;DHT22;62824;52.994;-3.936;2022-11-15T13:58:29;11.40;89.10
74384;DHT22;62824;52.994;-3.936;2022-11-15T14:01:03;11.40;89.70
74384;DHT22;62824;52.994;-3.936;2022-11-15T14:03:52;11.30;91.00
74384;DHT22;62824;52.994;-3.936;2022-11-15T14:06:20;11.20;90.40
74384;DHT22;62824;52.994;-3.936;2022-11-15T14:11:34;11.00;92.30
74384;DHT22;62824;52.994;-3.936;2022-11-15T14:16:46;11.00;95.50
74384;DHT22;62824;52.994;-3.936;2022-11-15T14:22:23;10.90;96.20
74384;DHT22;62824;52.994;-3.936;2022-11-15T14:25:17;10.90;96.50
74384;DHT22;62824;52.994;-3.936;2022-11-15T14:30:35;10.80;91.70
74384;DHT22;62824;52.994;-3.936;2022-11-15T14:33:01;10.80;90.30
74384;DHT22;62824;52.994;-3.936;2022-11-15T14:35:28;10.90;91.50
74384;DHT22;62824;52.994;-3.936;2022-11-15T14:38:00;10.90;90.10
74384;DHT22;62824;52.994;-3.936;2022-11-15T14:40:26;10.90;88.40
74384;DHT22;62824;52.994;-3.936;2022-11-15T14:42:52;10.90;80.30
74384;DHT22;62824;52.994;-3.936;2022-11-15T14:45:20;11.00;84.70
74384;DHT22;62824;52.994;-3.936;2022-11-15T14:47:46;10.90;88.70
74384;DHT22;62824;52.994;-3.936;2022-11-15T14:50:18;10.90;84.60
74384;DHT22;62824;52.994;-3.936;2022-11-15T14:52:44;10.90;87.80
74384;DHT22;62824;52.994;-3.936;2022-11-15T14:55:35;10.80;81.60
74384;DHT22;62824;52.994;-3.936;2022-11-15T14:58:05;10.80;84.70
74384;DHT22;62824;52.994;-3.936;2022-11-15T15:00:34;10.80;89.00
74384;DHT22;62824;52.994;-3.936;2022-11-15T15:03:01;10.90;90.40
74384;DHT22;62824;52.994;-3.936;2022-11-15T15:05:35;10.90;84.70
74384;DHT22;62824;52.994;-3.936;2022-11-15T15:08:01;10.90;90.10
74384;DHT22;62824;52.994;-3.936;2022-11-15T15:10:31;10.90;93.10
74384;DHT22;62824;52.994;-3.936;2022-11-15T15:12:58;10.80;94.30
74384;DHT22;62824;52.994;-3.936;2022-11-15T15:15:26;10.70;93.60
74384;DHT22;62824;52.994;-3.936;2022-11-15T15:17:52;10.60;94.20
74384;DHT22;62824;52.994;-3.936;2022-11-15T15:20:18;10.50;96.60
74384;DHT22;62824;52.994;-3.936;2022-11-15T15:22:44;10.50;97.00
74384;DHT22;62824;52.994;-3.936;2022-11-15T15:27:47;10.40;97.60
74384;DHT22;62824;52.994;-3.936;2022-11-15T15:30:13;10.20;99.10
74384;DHT22;62824;52.994;-3.936;2022-11-15T15:32:38;10.10;99.90
74384;DHT22;62824;52.994;-3.936;2022-11-15T15:35:04;10.10;99.90
74384;DHT22;62824;52.994;-3.936;2022-11-15T15:37:31;10.00;99.90
74384;DHT22;62824;52.994;-3.936;2022-11-15T15:39:58;10.00;99.90
74384;DHT22;62824;52.994;-3.936;2022-11-15T15:42:24;9.90;99.90
74384;DHT22;62824;52.994;-3.936;2022-11-15T15:44:51;9.80;99.90
74384;DHT22;62824;52.994;-3.936;2022-11-15T15:47:22;9.80;99.90
74384;DHT22;62824;52.994;-3.936;2022-11-15T15:49:49;9.60;99.90
74384;DHT22;62824;52.994;-3.936;2022-11-15T15:52:15;9.60;99.90
74384;DHT22;62824;52.994;-3.936;2022-11-15T15:54:41;9.50;99.90
74384;DHT22;62824;52.994;-3.936;2022-11-15T15:57:08;9.50;99.90
74384;DHT22;62824;52.994;-3.936;2022-11-15T15:59:34;9.50;99.90
74384;DHT22;62824;52.994;-3.936;2022-11-15T16:02:00;9.50;99.90
74384;DHT22;62824;52.994;-3.936;2022-11-15T16:04:25;9.50;99.90
74384;DHT22;62824;52.994;-3.936;2022-11-15T16:06:52;9.50;99.90
74384;DHT22;62824;52.994;-3.936;2022-11-15T16:09:20;9.50;99.90
74384;DHT22;62824;52.994;-3.936;2022-11-15T16:12:09;9.40;99.90
74384;DHT22;62824;52.994;-3.936;2022-11-15T16:14:35;9.40;99.90
74384;DHT22;62824;52.994;-3.936;2022-11-15T16:17:01;9.40;99.90
74384;DHT22;62824;52.994;-3.936;2022-11-15T16:19:27;9.40;99.90
74384;DHT22;62824;52.994;-3.936;2022-11-15T16:21:52;9.40;99.90
74384;DHT22;62824;52.994;-3.936;2022-11-15T16:24:19;9.40;99.90
74384;DHT22;62824;52.994;-3.936;2022-11-15T16:26:45;9.40;99.90
74384;DHT22;62824;52.994;-3.936;2022-11-15T16:29:12;9.40;99.90
74384;DHT22;62824;52.994;-3.936;2022-11-15T16:31:38;9.30;99.90
74384;DHT22;62824;52.994;-3.936;2022-11-15T16:34:03;9.30;99.90
74384;DHT22;62824;52.994;-3.936;2022-11-15T16:36:32;9.30;99.90
74384;DHT22;62824;52.994;-3.936;2022-11-15T16:38:59;9.40;99.90
74384;DHT22;62824;52.994;-3.936;2022-11-15T16:41:25;9.40;99.90
74384;DHT22;62824;52.994;-3.936;2022-11-15T16:43:51;9.40;99.90
74384;DHT22;62824;52.994;-3.936;2022-11-15T16:46:27;9.30;99.90
74384;DHT22;62824;52.994;-3.936;2022-11-15T16:48:54;9.30;99.90
74384;DHT22;62824;52.994;-3.936;2022-11-15T16:51:21;9.20;99.90
74384;DHT22;62824;52.994;-3.936;2022-11-15T16:53:47;9.20;99.90
74384;DHT22;62824;52.994;-3.936;2022-11-15T16:56:25;9.20;99.90
74384;DHT22;62824;52.994;-3.936;2022-11-15T16:58:53;9.20;99.90
74384;DHT22;62824;52.994;-3.936;2022-11-15T17:01:27;9.20;99.90
74384;DHT22;62824;52.994;-3.936;2022-11-15T17:03:53;9.20;99.90
74384;DHT22;62824;52.994;-3.936;2022-11-15T17:06:23;9.10;99.90
74384;DHT22;62824;52.994;-3.936;2022-11-15T17:08:49;9.20;99.90
74384;DHT22;62824;52.994;-3.936;2022-11-15T17:11:17;9.20;99.90
74384;DHT22;62824;52.994;-3.936;2022-11-15T17:13:44;9.10;99.90
74384;DHT22;62824;52.994;-3.936;2022-11-15T17:16:12;9.10;99.90
74384;DHT22;62824;52.994;-3.936;2022-11-15T17:18:39;9.20;99.90
74384;DHT22;62824;52.994;-3.936;2022-11-15T17:21:14;9.20;99.90
74384;DHT22;62824;52.994;-3.936;2022-11-15T17:23:41;9.30;99.90
74384;DHT22;62824;52.994;-3.936;2022-11-15T17:26:09;9.30;99.90
74384;DHT22;62824;52.994;-3.936;2022-11-15T17:28:36;9.20;99.90
74384;DHT22;62824;52.994;-3.936;2022-11-15T17:31:08;9.30;99.90
74384;DHT22;62824;52.994;-3.936;2022-11-15T17:33:35;9.30;99.90
74384;DHT22;62824;52.994;-3.936;2022-11-15T17:36:03;9.30;99.90
74384;DHT22;62824;52.994;-3.936;2022-11-15T17:38:29;9.30;99.90
74384;DHT22;62824;52.994;-3.936;2022-11-15T17:43:28;9.30;99.90
74384;DHT22;62824;52.994;-3.936;2022-11-15T17:45:54;9.20;99.90
74384;DHT22;62824;52.994;-3.936;2022-11-15T17:48:19;9.10;99.90
74384;DHT22;62824;52.994;-3.936;2022-11-15T17:50:58;9.10;99.90